Time;durP1;ratioP1;P1;durP2;ratioP2;P2;SDS_P1;SDS_P2;PMS_P1;PMS_P2;Temp;Humidity;BMP_temperature;BMP_pressure;BME280_temperature;BME280_humidity;BME280_pressure;Samples;Min_cycle;Max_cycle;Signal;HPM_P1;HPM_P2
2023/10/19 00:01:28;;;;;;;5.43;1.33;;;15.90;99.90;;;;;;5070054;28;20194;-58
2023/10/19 00:03:56;;;;;;;2.00;1.73;;;16.00;99.90;;;;;;5065702;28;20212;-57
2023/10/19 00:06:24;;;;;;;5.13;1.50;;;15.90;99.90;;;;;;5069835;28;20270;-57
2023/10/19 00:08:53;;;;;;;2.83;1.10;;;15.90;99.90;;;;;;5070863;28;20720;-57
2023/10/19 00:11:22;;;;;;;2.90;1.20;;;15.80;99.90;;;;;;5066662;28;20224;-57
2023/10/19 00:13:51;;;;;;;6.20;1.10;;;15.90;99.90;;;;;;5068001;28;20774;-57
2023/10/19 00:16:22;;;;;;;3.53;1.30;;;15.90;99.90;;;;;;5070529;28;20184;-58
2023/10/19 00:18:52;;;;;;;2.40;1.17;;;15.90;99.90;;;;;;5071183;28;20603;-58
2023/10/19 00:21:21;;;;;;;2.47;1.40;;;15.90;99.90;;;;;;5070459;28;20710;-58
2023/10/19 00:23:55;;;;;;;1.43;1.03;;;15.90;99.90;;;;;;5070384;28;20232;-58
2023/10/19 00:26:25;;;;;;;1.90;1.10;;;15.90;99.90;;;;;;5068183;28;20300;-57
2023/10/19 00:28:55;;;;;;;3.03;1.30;;;15.90;99.90;;;;;;5069964;28;20308;-58
2023/10/19 00:31:24;;;;;;;3.07;1.30;;;15.90;99.90;;;;;;5065334;28;20197;-58
2023/10/19 00:33:54;;;;;;;3.30;1.37;;;15.90;99.90;;;;;;5067811;28;20196;-58
2023/10/19 00:36:23;;;;;;;4.77;1.37;;;15.90;99.90;;;;;;5069709;28;20225;-57
2023/10/19 00:38:53;;;;;;;2.63;1.40;;;15.90;99.90;;;;;;5054261;28;20686;-57
2023/10/19 00:41:29;;;;;;;2.40;1.50;;;16.00;99.90;;;;;;5055043;28;20218;-57
2023/10/19 00:44:03;;;;;;;2.63;1.50;;;16.00;99.90;;;;;;5065457;28;20219;-58
2023/10/19 00:46:39;;;;;;;1.53;1.10;;;16.00;99.90;;;;;;5074295;28;21000;-58
2023/10/19 00:49:13;;;;;;;4.10;1.40;;;16.00;99.90;;;;;;5074438;28;20296;-58
2023/10/19 00:51:53;;;;;;;2.33;1.30;;;16.00;99.90;;;;;;5075060;28;20240;-59
2023/10/19 00:54:31;;;;;;;3.87;1.10;;;16.10;99.90;;;;;;5069406;28;20219;-58
2023/10/19 00:57:06;;;;;;;2.20;1.30;;;16.10;99.90;;;;;;5070370;28;20401;-58
2023/10/19 00:59:42;;;;;;;1.30;1.00;;;16.20;99.90;;;;;;5075578;28;20713;-57
2023/10/19 01:02:21;;;;;;;1.10;1.03;;;16.20;99.90;;;;;;5072513;28;20213;-58
2023/10/19 01:04:55;;;;;;;3.53;1.17;;;16.20;99.90;;;;;;5067436;28;20723;-58
2023/10/19 01:07:27;;;;;;;2.53;0.90;;;16.20;99.90;;;;;;5069608;28;20189;-57
2023/10/19 01:09:59;;;;;;;3.27;1.33;;;16.20;99.90;;;;;;5071933;28;20198;-58
2023/10/19 01:12:38;;;;;;;3.17;1.30;;;16.20;99.90;;;;;;5075669;28;21173;-58
2023/10/19 01:15:12;;;;;;;2.83;1.40;;;16.20;99.90;;;;;;5074219;28;20226;-58
2023/10/19 01:17:44;;;;;;;2.40;1.33;;;16.20;99.90;;;;;;5073737;28;20689;-59
2023/10/19 01:20:22;;;;;;;1.33;1.23;;;16.20;99.90;;;;;;5069673;28;20585;-57
2023/10/19 01:23:20;;;;;;;2.37;1.10;;;16.20;99.90;;;;;;5073726;28;20629;-58
2023/10/19 01:25:59;;;;;;;6.20;1.77;;;16.10;99.90;;;;;;5072400;28;20227;-58
2023/10/19 01:28:41;;;;;;;4.60;1.20;;;16.20;99.90;;;;;;5072791;28;20196;-58
2023/10/19 01:31:15;;;;;;;1.53;1.20;;;16.10;99.90;;;;;;5069845;28;20190;-58
2023/10/19 01:33:45;;;;;;;1.63;1.20;;;16.10;99.90;;;;;;5074175;28;20249;-58
2023/10/19 01:36:24;;;;;;;5.67;1.20;;;16.10;99.90;;;;;;5072993;28;20208;-58
2023/10/19 01:38:55;;;;;;;2.83;1.33;;;16.10;99.90;;;;;;5068481;28;20224;-58
2023/10/19 01:41:24;;;;;;;2.13;1.20;;;16.00;99.90;;;;;;5076295;28;20225;-58
2023/10/19 01:43:54;;;;;;;6.07;1.63;;;16.00;99.90;;;;;;5068857;28;20309;-58
2023/10/19 01:46:23;;;;;;;4.83;1.67;;;15.90;99.90;;;;;;5072668;28;20206;-58
2023/10/19 01:48:58;;;;;;;4.90;1.30;;;15.90;99.90;;;;;;5073744;28;20315;-58
2023/10/19 01:51:30;;;;;;;6.83;1.70;;;15.80;99.90;;;;;;5075255;28;20217;-58
2023/10/19 01:54:01;;;;;;;2.97;1.33;;;15.80;99.90;;;;;;5069254;28;20233;-58
2023/10/19 01:56:30;;;;;;;5.50;1.40;;;15.90;99.90;;;;;;5072013;28;20234;-58
2023/10/19 01:58:59;;;;;;;4.90;1.37;;;15.90;99.90;;;;;;5069434;28;20267;-58
2023/10/19 02:01:28;;;;;;;2.90;1.40;;;15.80;99.90;;;;;;5075868;28;20208;-58
2023/10/19 02:03:59;;;;;;;2.67;1.40;;;15.80;99.90;;;;;;5070001;28;20619;-57
2023/10/19 02:06:35;;;;;;;6.67;1.53;;;15.80;99.90;;;;;;5069030;28;20245;-58
2023/10/19 02:09:16;;;;;;;4.93;1.87;;;15.80;99.90;;;;;;5074199;28;20229;-58
2023/10/19 02:11:46;;;;;;;2.67;1.40;;;15.80;99.90;;;;;;5071327;28;20214;-58
2023/10/19 02:14:15;;;;;;;8.67;1.77;;;15.70;99.90;;;;;;5068650;28;20221;-57
2023/10/19 02:16:45;;;;;;;3.27;1.37;;;15.70;99.90;;;;;;5069678;28;20238;-58
2023/10/19 02:19:13;;;;;;;6.83;1.70;;;15.70;99.90;;;;;;5064605;28;20248;-58
2023/10/19 02:21:41;;;;;;;5.20;1.60;;;15.70;99.90;;;;;;5070087;28;20655;-58
2023/10/19 02:24:14;;;;;;;3.90;1.63;;;15.70;99.90;;;;;;5070875;28;20223;-58
2023/10/19 02:26:42;;;;;;;2.30;1.37;;;15.70;99.90;;;;;;5073564;28;20251;-58
2023/10/19 02:29:10;;;;;;;8.60;1.60;;;15.70;99.90;;;;;;5069640;28;20230;-58
2023/10/19 02:31:39;;;;;;;7.17;1.80;;;15.70;99.90;;;;;;5067575;28;20213;-57
2023/10/19 02:34:10;;;;;;;4.93;2.07;;;15.60;99.90;;;;;;5073239;28;20188;-57
2023/10/19 02:36:40;;;;;;;6.60;2.10;;;15.60;99.90;;;;;;5064709;28;20613;-57
2023/10/19 02:39:11;;;;;;;4.73;1.70;;;15.60;99.90;;;;;;5066741;28;20584;-57
2023/10/19 02:41:42;;;;;;;5.00;1.63;;;15.60;99.90;;;;;;5068852;28;20240;-58
2023/10/19 02:44:19;;;;;;;5.13;2.00;;;15.60;99.90;;;;;;5071906;28;20247;-57
2023/10/19 02:46:50;;;;;;;3.70;1.90;;;15.60;99.90;;;;;;5071268;28;20223;-58
2023/10/19 02:49:19;;;;;;;3.07;1.70;;;15.60;99.90;;;;;;5067232;28;20191;-58
2023/10/19 02:51:49;;;;;;;1.60;1.50;;;15.60;99.90;;;;;;5076126;28;20213;-57
2023/10/19 02:54:21;;;;;;;4.13;2.20;;;15.60;99.90;;;;;;5075421;28;20234;-58
2023/10/19 02:56:51;;;;;;;9.93;2.00;;;15.60;99.90;;;;;;5062175;28;20229;-57
2023/10/19 02:59:22;;;;;;;4.87;1.50;;;15.60;99.90;;;;;;5071410;28;20226;-57
2023/10/19 03:01:51;;;;;;;8.17;1.83;;;15.70;99.90;;;;;;5070020;28;20247;-58
2023/10/19 03:04:19;;;;;;;3.63;1.70;;;15.70;99.90;;;;;;5063343;28;20240;-58
2023/10/19 03:06:49;;;;;;;4.43;1.70;;;15.70;99.90;;;;;;5069362;28;20222;-59
2023/10/19 03:09:22;;;;;;;6.87;1.80;;;15.70;99.90;;;;;;5068961;28;20232;-59
2023/10/19 03:11:52;;;;;;;6.37;1.80;;;15.70;99.90;;;;;;5066469;28;20216;-57
2023/10/19 03:14:20;;;;;;;4.47;1.73;;;15.70;99.90;;;;;;5068324;28;20228;-57
2023/10/19 03:16:49;;;;;;;4.20;1.70;;;15.70;99.90;;;;;;5067521;28;20228;-58
2023/10/19 03:19:16;;;;;;;7.10;1.97;;;15.70;99.90;;;;;;5073056;28;20199;-58
2023/10/19 03:21:48;;;;;;;3.13;1.73;;;15.70;99.90;;;;;;5073817;28;20277;-58
2023/10/19 03:24:23;;;;;;;6.53;1.77;;;15.70;99.90;;;;;;5070336;28;20222;-59
2023/10/19 03:26:54;;;;;;;8.67;1.90;;;15.70;99.90;;;;;;5070908;28;20649;-58
2023/10/19 03:29:31;;;;;;;5.73;1.83;;;15.70;99.90;;;;;;5068221;28;20221;-58
2023/10/19 03:32:00;;;;;;;3.57;1.90;;;15.70;99.90;;;;;;5065532;28;20302;-57
2023/10/19 03:34:31;;;;;;;5.63;1.77;;;15.70;99.90;;;;;;5071756;28;20191;-58
2023/10/19 03:37:05;;;;;;;11.10;2.07;;;15.70;99.90;;;;;;5068011;28;20194;-57
2023/10/19 03:39:37;;;;;;;2.53;1.57;;;15.70;99.90;;;;;;5073510;28;20222;-58
2023/10/19 03:42:06;;;;;;;5.67;1.53;;;15.70;99.90;;;;;;5070692;28;20603;-58
2023/10/19 03:44:44;;;;;;;4.47;1.80;;;15.60;99.90;;;;;;5068220;28;20726;-58
2023/10/19 03:47:18;;;;;;;5.63;2.17;;;15.60;99.90;;;;;;5072391;28;21115;-57
2023/10/19 03:49:47;;;;;;;7.03;1.90;;;15.60;99.90;;;;;;5068868;28;20236;-58
2023/10/19 03:52:22;;;;;;;9.07;2.00;;;15.60;99.90;;;;;;5068290;28;20181;-58
2023/10/19 03:54:52;;;;;;;3.47;1.70;;;15.60;99.90;;;;;;5067561;28;20244;-58
2023/10/19 03:57:22;;;;;;;6.90;1.77;;;15.60;99.90;;;;;;5069833;28;20224;-58
2023/10/19 03:59:56;;;;;;;7.93;2.00;;;15.60;99.90;;;;;;5067621;28;20284;-58
2023/10/19 04:02:26;;;;;;;6.97;2.03;;;15.70;99.90;;;;;;5059140;28;20225;-57
2023/10/19 04:04:57;;;;;;;5.63;2.10;;;15.70;99.90;;;;;;5064005;28;20321;-58
2023/10/19 04:07:26;;;;;;;6.43;1.70;;;15.70;99.90;;;;;;5066205;28;20202;-58
2023/10/19 04:10:29;;;;;;;8.07;2.07;;;15.60;99.90;;;;;;5072696;28;20204;-58
2023/10/19 04:13:00;;;;;;;5.77;1.70;;;15.60;99.90;;;;;;5069900;28;20233;-57
2023/10/19 04:15:33;;;;;;;9.13;2.10;;;15.60;99.90;;;;;;5068845;28;20224;-59
2023/10/19 04:18:02;;;;;;;5.83;1.80;;;15.60;99.90;;;;;;5067597;28;20269;-58
2023/10/19 04:20:42;;;;;;;12.33;2.33;;;15.60;99.90;;;;;;5066743;28;20254;-58
2023/10/19 04:23:14;;;;;;;7.00;2.03;;;15.60;99.90;;;;;;5065046;28;20221;-58
2023/10/19 04:25:46;;;;;;;11.27;1.90;;;15.60;99.90;;;;;;5065233;28;20249;-57
2023/10/19 04:28:15;;;;;;;3.43;1.50;;;15.60;99.90;;;;;;5061677;28;20197;-57
2023/10/19 04:30:44;;;;;;;13.00;2.10;;;15.60;99.90;;;;;;5073240;28;20228;-58
2023/10/19 04:33:12;;;;;;;9.40;1.73;;;15.60;99.90;;;;;;5069326;28;20229;-57
2023/10/19 04:35:45;;;;;;;6.73;1.93;;;15.70;99.90;;;;;;5065858;28;20221;-58
2023/10/19 04:38:13;;;;;;;9.07;2.23;;;15.70;99.90;;;;;;5070543;28;20221;-57
2023/10/19 04:40:42;;;;;;;9.23;2.50;;;15.60;99.90;;;;;;5069611;28;20230;-58
2023/10/19 04:43:11;;;;;;;8.83;1.93;;;15.70;99.90;;;;;;5071911;28;20200;-57
2023/10/19 04:45:41;;;;;;;9.33;2.20;;;15.70;99.90;;;;;;5065037;28;20681;-58
2023/10/19 04:48:10;;;;;;;12.77;2.13;;;15.70;99.90;;;;;;5064446;28;20220;-57
2023/10/19 04:50:39;;;;;;;6.47;2.13;;;15.70;99.90;;;;;;5067023;28;20218;-57
2023/10/19 04:53:08;;;;;;;14.93;2.50;;;15.70;99.90;;;;;;5064871;28;20345;-58
2023/10/19 04:55:36;;;;;;;10.53;2.37;;;15.70;99.90;;;;;;5061893;28;20265;-58
2023/10/19 04:58:05;;;;;;;14.23;2.20;;;15.70;99.90;;;;;;5068325;28;20219;-57
2023/10/19 05:00:35;;;;;;;6.57;2.07;;;15.70;99.90;;;;;;5064891;28;20210;-58
2023/10/19 05:03:03;;;;;;;9.87;2.40;;;15.70;99.90;;;;;;5069969;28;20287;-58
2023/10/19 05:05:32;;;;;;;10.30;1.90;;;15.70;99.90;;;;;;5071461;28;20306;-57
2023/10/19 05:08:00;;;;;;;9.10;2.13;;;15.70;99.90;;;;;;5069778;28;20708;-57
2023/10/19 05:10:47;;;;;;;4.67;1.60;;;15.80;99.90;;;;;;5069177;28;20226;-58
2023/10/19 05:13:15;;;;;;;6.93;2.07;;;15.70;99.90;;;;;;5066813;28;20195;-58
2023/10/19 05:15:45;;;;;;;6.97;2.13;;;15.80;99.90;;;;;;5066899;28;20229;-57
2023/10/19 05:18:13;;;;;;;8.60;2.27;;;15.70;99.90;;;;;;5069197;28;20215;-58
2023/10/19 05:20:41;;;;;;;7.83;2.50;;;15.70;99.90;;;;;;5069944;28;20229;-58
2023/10/19 05:23:10;;;;;;;10.13;2.20;;;15.80;99.90;;;;;;5066503;28;20221;-57
2023/10/19 05:25:38;;;;;;;8.13;2.20;;;15.70;99.90;;;;;;5076800;28;20645;-58
2023/10/19 05:28:08;;;;;;;6.77;2.00;;;15.80;99.90;;;;;;5068858;28;20193;-58
2023/10/19 05:30:37;;;;;;;7.57;2.13;;;15.80;99.90;;;;;;5065023;28;20585;-58
2023/10/19 05:33:07;;;;;;;5.80;2.00;;;15.70;99.90;;;;;;5069164;28;20714;-57
2023/10/19 05:35:40;;;;;;;10.30;2.23;;;15.70;99.90;;;;;;5072434;28;20220;-57
2023/10/19 05:38:11;;;;;;;5.20;2.10;;;15.70;99.90;;;;;;5068972;28;20567;-57
2023/10/19 05:40:45;;;;;;;8.80;2.17;;;15.70;99.90;;;;;;5064782;28;20198;-57
2023/10/19 05:43:17;;;;;;;12.57;2.53;;;15.70;99.90;;;;;;5073080;28;20243;-57
2023/10/19 05:45:50;;;;;;;9.40;2.20;;;15.70;99.90;;;;;;5070048;28;20226;-58
2023/10/19 05:48:23;;;;;;;8.13;1.97;;;15.70;99.90;;;;;;5069985;28;20269;-57
2023/10/19 05:50:52;;;;;;;6.67;2.20;;;15.70;99.90;;;;;;5076368;28;20767;-57
2023/10/19 05:53:33;;;;;;;5.83;2.13;;;15.70;99.90;;;;;;5075607;28;20223;-57
2023/10/19 05:56:02;;;;;;;10.27;2.07;;;15.70;99.90;;;;;;5070774;28;20332;-57
2023/10/19 05:58:34;;;;;;;5.80;2.33;;;15.70;99.90;;;;;;5068229;28;20209;-57
2023/10/19 06:01:08;;;;;;;10.37;2.00;;;15.70;99.90;;;;;;5071041;28;20176;-57
2023/10/19 06:03:42;;;;;;;7.97;2.13;;;15.70;99.90;;;;;;5064428;28;20225;-58
2023/10/19 06:06:12;;;;;;;9.10;2.20;;;15.60;99.90;;;;;;5068911;28;20219;-57
2023/10/19 06:08:42;;;;;;;15.97;2.57;;;15.60;99.90;;;;;;5066034;28;20908;-57
2023/10/19 06:11:11;;;;;;;11.23;2.30;;;15.60;99.90;;;;;;5071663;28;20221;-59
2023/10/19 06:13:40;;;;;;;9.40;2.37;;;15.70;99.90;;;;;;5071975;28;20202;-58
2023/10/19 06:16:18;;;;;;;9.20;2.23;;;15.60;99.90;;;;;;5073712;28;20209;-58
2023/10/19 06:18:50;;;;;;;8.10;2.30;;;15.60;99.90;;;;;;5065515;28;20724;-58
2023/10/19 06:21:20;;;;;;;7.87;2.30;;;15.50;99.90;;;;;;5068282;28;20224;-58
2023/10/19 06:23:50;;;;;;;11.03;3.10;;;15.50;99.90;;;;;;5063500;28;20224;-57
2023/10/19 06:26:20;;;;;;;7.23;2.50;;;15.40;99.90;;;;;;5068145;28;20249;-58
2023/10/19 06:28:57;;;;;;;9.23;2.60;;;15.40;99.90;;;;;;5064008;28;20226;-57
2023/10/19 06:31:28;;;;;;;11.23;2.77;;;15.40;99.90;;;;;;5076886;28;20213;-58
2023/10/19 06:34:00;;;;;;;14.50;2.97;;;15.40;99.90;;;;;;5068967;28;20819;-59
2023/10/19 06:36:37;;;;;;;11.43;2.50;;;15.40;99.90;;;;;;5067563;28;20223;-60
2023/10/19 06:39:08;;;;;;;11.17;2.57;;;15.40;99.90;;;;;;5073709;28;20307;-60
2023/10/19 06:41:37;;;;;;;11.50;2.40;;;15.40;99.90;;;;;;5065471;28;20228;-60
2023/10/19 06:44:07;;;;;;;7.27;3.00;;;15.40;99.90;;;;;;5068581;28;20717;-60
2023/10/19 06:46:39;;;;;;;12.13;3.20;;;15.40;99.90;;;;;;5066932;28;20212;-59
2023/10/19 06:49:10;;;;;;;10.70;2.50;;;15.30;99.90;;;;;;5066940;28;20200;-60
2023/10/19 06:51:42;;;;;;;11.80;2.60;;;15.40;99.90;;;;;;5068094;28;20219;-60
2023/10/19 06:54:13;;;;;;;13.07;3.00;;;15.40;99.90;;;;;;5070232;28;20222;-60
2023/10/19 06:56:47;;;;;;;13.30;2.67;;;15.40;99.90;;;;;;5070436;28;20220;-60
2023/10/19 06:59:17;;;;;;;5.60;2.33;;;15.50;99.90;;;;;;5071319;28;20239;-60
2023/10/19 07:01:47;;;;;;;10.93;2.70;;;15.50;99.90;;;;;;5071722;28;20316;-60
2023/10/19 07:04:19;;;;;;;7.37;2.17;;;15.50;99.90;;;;;;5068311;28;20194;-60
2023/10/19 07:06:51;;;;;;;16.80;2.67;;;15.60;99.90;;;;;;5065655;28;20228;-60
2023/10/19 07:09:22;;;;;;;7.63;2.70;;;15.60;99.90;;;;;;5080831;28;20221;-60
2023/10/19 07:11:54;;;;;;;10.90;3.13;;;15.70;99.90;;;;;;5066268;28;20229;-60
2023/10/19 07:14:23;;;;;;;10.70;2.70;;;15.70;99.90;;;;;;5078191;28;20245;-60
2023/10/19 07:16:53;;;;;;;12.57;2.90;;;15.70;99.90;;;;;;5069396;28;21469;-60
2023/10/19 07:19:24;;;;;;;10.47;2.37;;;15.70;99.90;;;;;;5070813;28;20220;-59
2023/10/19 07:21:57;;;;;;;7.63;2.00;;;15.80;99.90;;;;;;5069755;28;20920;-60
2023/10/19 07:24:26;;;;;;;9.90;2.50;;;15.80;99.90;;;;;;5071223;28;20264;-60
2023/10/19 07:27:07;;;;;;;11.70;2.50;;;15.90;99.90;;;;;;5065395;28;20245;-59
2023/10/19 07:29:51;;;;;;;9.93;2.77;;;15.90;99.90;;;;;;5067586;28;20677;-60
2023/10/19 07:32:24;;;;;;;9.77;2.40;;;16.00;99.90;;;;;;5068892;28;20248;-60
2023/10/19 07:34:59;;;;;;;10.23;2.10;;;16.00;99.90;;;;;;5069995;28;20221;-60
2023/10/19 07:37:31;;;;;;;9.03;2.70;;;16.00;99.90;;;;;;5064806;28;20190;-60
2023/10/19 07:40:02;;;;;;;7.83;2.37;;;16.00;99.90;;;;;;5069907;28;20553;-60
2023/10/19 07:42:35;;;;;;;15.60;3.07;;;16.00;99.90;;;;;;5065449;28;21035;-60
2023/10/19 07:45:11;;;;;;;11.23;3.53;;;16.00;99.90;;;;;;5070310;28;20313;-60
2023/10/19 07:47:42;;;;;;;11.03;3.23;;;16.00;99.90;;;;;;5067125;28;20231;-60
2023/10/19 07:50:15;;;;;;;13.73;4.10;;;16.00;99.90;;;;;;5067956;28;20623;-60
2023/10/19 07:52:46;;;;;;;12.07;3.90;;;16.00;99.90;;;;;;5065741;28;20229;-60
2023/10/19 07:55:22;;;;;;;9.10;3.43;;;16.00;99.90;;;;;;5070268;28;20717;-60
2023/10/19 07:57:53;;;;;;;11.27;3.40;;;16.00;99.90;;;;;;5069477;28;20305;-60
2023/10/19 08:00:29;;;;;;;11.73;3.57;;;16.10;99.90;;;;;;5065399;28;20221;-60
2023/10/19 08:03:00;;;;;;;12.63;3.03;;;16.20;99.90;;;;;;5067971;28;20220;-60
2023/10/19 08:05:31;;;;;;;16.40;3.50;;;16.20;99.90;;;;;;5064431;28;20220;-60
2023/10/19 08:08:03;;;;;;;12.37;3.10;;;16.40;99.90;;;;;;5048406;28;20573;-60
2023/10/19 08:10:36;;;;;;;12.87;2.83;;;16.30;99.90;;;;;;5069192;28;20729;-60
2023/10/19 08:13:06;;;;;;;11.57;3.20;;;16.30;99.90;;;;;;5071259;28;20769;-60
2023/10/19 08:15:36;;;;;;;8.03;2.80;;;16.30;99.90;;;;;;5070300;28;20222;-59
2023/10/19 08:18:34;;;;;;;15.73;3.13;;;16.40;99.90;;;;;;5066617;28;20295;-60
2023/10/19 08:21:08;;;;;;;11.93;3.13;;;16.50;99.90;;;;;;5076797;28;20230;-60
2023/10/19 08:23:49;;;;;;;11.70;3.50;;;16.50;99.90;;;;;;5070429;28;20237;-60
2023/10/19 08:26:28;;;;;;;10.47;2.83;;;16.50;99.90;;;;;;5069090;28;20290;-59
2023/10/19 08:29:12;;;;;;;10.57;2.50;;;16.70;99.90;;;;;;5070661;28;20350;-60
2023/10/19 08:31:47;;;;;;;13.87;2.87;;;16.80;99.90;;;;;;5069035;28;20239;-60
2023/10/19 08:34:31;;;;;;;7.53;2.40;;;16.80;99.90;;;;;;5058205;28;20181;-60
2023/10/19 08:37:02;;;;;;;8.60;2.60;;;17.00;99.90;;;;;;5067793;28;20215;-60
2023/10/19 08:39:35;;;;;;;11.27;2.50;;;17.30;99.90;;;;;;5067081;28;20211;-61
2023/10/19 08:42:10;;;;;;;9.93;2.27;;;17.30;99.90;;;;;;5068429;28;20230;-60
2023/10/19 08:44:41;;;;;;;11.10;2.33;;;17.40;99.90;;;;;;5073175;28;20215;-60
2023/10/19 08:47:12;;;;;;;10.47;2.73;;;17.30;99.90;;;;;;5071456;28;20224;-60
2023/10/19 08:49:41;;;;;;;13.20;2.50;;;17.30;99.90;;;;;;5070998;28;20413;-60
2023/10/19 08:52:15;;;;;;;7.60;2.73;;;17.30;99.90;;;;;;5068969;28;20279;-60
2023/10/19 08:54:43;;;;;;;12.73;2.67;;;17.30;99.90;;;;;;5069147;28;20610;-60
2023/10/19 08:57:12;;;;;;;9.90;2.40;;;17.30;99.90;;;;;;5069932;28;20286;-60
2023/10/19 08:59:40;;;;;;;9.60;2.53;;;17.20;99.90;;;;;;5069822;28;20269;-60
2023/10/19 09:02:08;;;;;;;9.40;2.50;;;17.10;99.90;;;;;;5068742;28;20231;-60
2023/10/19 09:04:43;;;;;;;9.30;2.40;;;17.10;99.90;;;;;;5068913;28;20180;-60
2023/10/19 09:07:14;;;;;;;10.43;2.63;;;17.20;99.90;;;;;;5070784;28;20241;-60
2023/10/19 09:09:42;;;;;;;11.57;2.73;;;17.10;99.90;;;;;;5074444;28;20762;-60
2023/10/19 09:12:12;;;;;;;7.40;2.47;;;17.20;99.90;;;;;;5070013;28;20223;-60
2023/10/19 09:14:43;;;;;;;10.33;2.40;;;17.30;99.90;;;;;;5072726;28;20948;-60
2023/10/19 09:17:13;;;;;;;10.73;2.50;;;17.30;99.90;;;;;;5073066;28;21054;-60
2023/10/19 09:19:43;;;;;;;13.50;2.60;;;17.40;99.90;;;;;;5069722;28;21087;-60
2023/10/19 09:22:22;;;;;;;10.40;2.57;;;17.30;99.90;;;;;;5071969;28;20758;-60
2023/10/19 09:24:53;;;;;;;14.60;3.10;;;17.40;99.90;;;;;;5072249;28;20220;-60
2023/10/19 09:27:21;;;;;;;11.47;2.53;;;17.40;99.90;;;;;;5066335;28;20212;-60
2023/10/19 09:29:51;;;;;;;15.63;3.23;;;17.40;99.90;;;;;;5069568;28;20719;-60
2023/10/19 09:32:19;;;;;;;11.80;2.40;;;17.50;99.90;;;;;;5073060;28;20231;-60
2023/10/19 09:34:48;;;;;;;14.13;2.97;;;17.50;99.90;;;;;;5070019;28;20943;-60
2023/10/19 09:37:18;;;;;;;10.83;2.40;;;17.60;99.90;;;;;;5072813;28;20185;-60
2023/10/19 09:39:46;;;;;;;16.73;2.40;;;17.70;99.90;;;;;;5071220;28;20219;-60
2023/10/19 09:42:17;;;;;;;8.63;2.23;;;17.70;99.90;;;;;;5070655;28;20217;-60
2023/10/19 09:44:46;;;;;;;12.63;2.60;;;17.70;99.90;;;;;;5069100;28;20307;-60
2023/10/19 09:47:20;;;;;;;10.90;3.17;;;17.80;99.90;;;;;;5072250;28;20230;-60
2023/10/19 09:49:50;;;;;;;16.33;2.97;;;17.80;99.90;;;;;;5073031;28;20224;-60
2023/10/19 09:52:21;;;;;;;10.87;2.80;;;17.80;99.90;;;;;;5069790;28;20566;-60
2023/10/19 09:55:00;;;;;;;9.20;2.57;;;17.80;99.90;;;;;;5068192;28;20223;-60
2023/10/19 09:57:34;;;;;;;16.40;3.00;;;17.90;99.90;;;;;;5071209;28;20212;-60
2023/10/19 10:00:11;;;;;;;10.30;2.50;;;18.00;99.90;;;;;;5072587;28;20224;-60
2023/10/19 10:02:42;;;;;;;8.17;2.60;;;18.00;99.90;;;;;;5076052;28;20242;-60
2023/10/19 10:05:44;;;;;;;10.37;2.70;;;18.10;99.90;;;;;;5068373;28;20230;-60
2023/10/19 10:08:39;;;;;;;11.10;2.93;;;18.10;99.90;;;;;;5064385;28;20211;-58
2023/10/19 10:11:21;;;;;;;15.97;3.17;;;18.20;99.90;;;;;;5051992;28;20216;-59
2023/10/19 10:13:53;;;;;;;13.87;2.73;;;18.20;99.90;;;;;;5069185;28;20702;-59
2023/10/19 10:16:26;;;;;;;9.73;2.63;;;18.20;99.90;;;;;;5068831;28;20192;-59
2023/10/19 10:19:00;;;;;;;15.43;2.80;;;18.10;99.90;;;;;;5058827;28;20200;-59
2023/10/19 10:21:29;;;;;;;13.33;3.13;;;18.20;99.90;;;;;;5065757;28;20640;-59
2023/10/19 10:24:00;;;;;;;13.93;2.70;;;18.20;99.90;;;;;;5071228;28;20879;-59
2023/10/19 10:26:36;;;;;;;15.07;3.13;;;18.30;99.90;;;;;;5066236;28;20239;-59
2023/10/19 10:29:19;;;;;;;13.93;3.13;;;18.40;99.90;;;;;;5068997;28;20597;-59
2023/10/19 10:31:49;;;;;;;18.33;3.00;;;18.50;99.90;;;;;;5069835;28;20308;-59
2023/10/19 10:34:45;;;;;;;12.40;2.63;;;18.50;99.90;;;;;;5071021;28;20291;-59
2023/10/19 10:37:14;;;;;;;11.93;2.50;;;18.50;99.90;;;;;;5071634;28;20216;-59
2023/10/19 10:39:45;;;;;;;11.33;2.73;;;18.50;99.90;;;;;;5067099;28;20232;-59
2023/10/19 10:42:14;;;;;;;13.70;3.00;;;18.50;99.90;;;;;;5073096;28;20223;-59
2023/10/19 10:44:45;;;;;;;10.57;2.93;;;18.40;99.90;;;;;;5069074;28;20211;-59
2023/10/19 10:47:18;;;;;;;13.40;2.70;;;18.40;99.90;;;;;;5066984;28;20232;-59
2023/10/19 10:49:54;;;;;;;13.87;2.60;;;18.30;99.90;;;;;;5070797;28;20228;-59
2023/10/19 10:52:31;;;;;;;14.23;3.13;;;18.40;99.90;;;;;;5067860;28;20190;-58
2023/10/19 10:55:10;;;;;;;12.57;2.47;;;18.30;99.90;;;;;;5067034;28;20666;-59
2023/10/19 10:57:40;;;;;;;12.33;2.80;;;18.30;99.90;;;;;;5067344;28;20287;-59
2023/10/19 11:00:15;;;;;;;15.30;2.60;;;18.20;99.90;;;;;;5064478;28;20219;-60
2023/10/19 11:02:45;;;;;;;8.07;2.50;;;18.10;99.90;;;;;;5068131;28;20277;-59
2023/10/19 11:05:16;;;;;;;15.13;2.93;;;17.90;99.90;;;;;;5071680;28;20212;-60
2023/10/19 11:08:10;;;;;;;11.03;2.70;;;17.80;99.90;;;;;;5072026;28;20216;-60
2023/10/19 11:10:42;;;;;;;8.77;2.40;;;17.80;99.90;;;;;;5061238;28;20723;-58
2023/10/19 11:13:13;;;;;;;8.30;2.43;;;17.80;99.90;;;;;;5074454;28;20230;-59
2023/10/19 11:15:49;;;;;;;13.73;2.83;;;17.80;99.90;;;;;;5068884;28;20227;-59
2023/10/19 11:18:30;;;;;;;8.13;2.43;;;17.90;99.90;;;;;;5070401;28;20269;-59
2023/10/19 11:20:59;;;;;;;8.97;2.40;;;18.00;99.90;;;;;;5072601;28;20247;-59
2023/10/19 11:23:38;;;;;;;11.03;2.60;;;18.10;99.90;;;;;;5068905;28;20219;-59
2023/10/19 11:26:45;;;;;;;10.57;2.47;;;18.00;99.90;;;;;;5068809;28;20219;-59
2023/10/19 11:29:18;;;;;;;10.63;2.33;;;18.10;99.90;;;;;;5068855;28;20224;-59
2023/10/19 11:31:59;;;;;;;11.83;2.27;;;18.10;99.90;;;;;;5072471;28;20232;-59
2023/10/19 11:34:28;;;;;;;8.83;2.37;;;18.10;99.90;;;;;;5070100;28;20208;-59
2023/10/19 11:36:59;;;;;;;9.33;2.40;;;18.10;99.90;;;;;;5069398;28;20192;-59
2023/10/19 11:39:29;;;;;;;10.13;2.20;;;18.10;99.90;;;;;;5070687;28;20371;-59
2023/10/19 11:41:58;;;;;;;7.63;2.30;;;18.10;99.90;;;;;;5075085;28;20708;-59
2023/10/19 11:44:28;;;;;;;6.60;2.33;;;18.10;99.90;;;;;;5069252;28;20223;-59
2023/10/19 11:46:58;;;;;;;4.93;2.23;;;18.10;99.90;;;;;;5070467;28;20238;-59
2023/10/19 11:49:27;;;;;;;8.37;2.73;;;18.10;99.90;;;;;;5066285;28;20185;-58
2023/10/19 11:51:55;;;;;;;8.33;2.10;;;18.20;99.90;;;;;;5062864;28;20226;-59
2023/10/19 11:54:23;;;;;;;6.07;2.40;;;18.20;99.90;;;;;;5066715;28;20574;-59
2023/10/19 11:56:53;;;;;;;6.10;2.30;;;18.20;99.90;;;;;;5069397;28;20231;-59
2023/10/19 11:59:21;;;;;;;4.57;2.00;;;18.10;99.90;;;;;;5069589;28;20320;-59
2023/10/19 12:01:51;;;;;;;9.27;2.30;;;18.20;99.90;;;;;;5064887;28;20228;-59
2023/10/19 12:04:20;;;;;;;8.07;2.60;;;18.20;99.90;;;;;;5068876;28;20192;-59
2023/10/19 12:06:48;;;;;;;11.30;2.40;;;18.30;99.90;;;;;;5066294;28;20225;-59
2023/10/19 12:09:35;;;;;;;8.37;2.40;;;18.30;99.90;;;;;;5070052;28;20736;-59
2023/10/19 12:12:05;;;;;;;9.03;2.40;;;18.40;99.90;;;;;;5063077;28;20302;-59
2023/10/19 12:15:12;;;;;;;6.10;2.23;;;18.40;99.90;;;;;;5065482;28;20232;-59
2023/10/19 12:18:01;;;;;;;4.53;2.47;;;18.40;99.90;;;;;;5066637;28;20258;-59
2023/10/19 12:20:31;;;;;;;5.80;1.90;;;18.40;99.90;;;;;;5070330;28;20738;-59
2023/10/19 12:23:37;;;;;;;7.50;1.90;;;18.40;99.90;;;;;;5068888;28;20207;-59
2023/10/19 12:26:10;;;;;;;4.07;1.70;;;18.30;99.90;;;;;;5066919;28;20314;-59
2023/10/19 12:28:39;;;;;;;2.80;1.77;;;18.30;99.90;;;;;;5062630;28;20578;-59
2023/10/19 12:31:08;;;;;;;3.67;1.60;;;18.30;99.90;;;;;;5060046;28;20344;-59
2023/10/19 12:33:41;;;;;;;4.83;1.70;;;18.40;99.90;;;;;;5069396;28;20219;-59
2023/10/19 12:36:31;;;;;;;4.47;1.60;;;18.40;99.90;;;;;;5063960;28;20255;-58
2023/10/19 12:38:59;;;;;;;2.33;1.60;;;18.50;99.90;;;;;;5059469;28;20303;-58
2023/10/19 12:41:29;;;;;;;4.90;1.47;;;18.60;99.90;;;;;;5066607;28;20238;-59
2023/10/19 12:43:58;;;;;;;2.00;1.30;;;18.70;99.90;;;;;;5065579;28;20235;-59
2023/10/19 12:46:29;;;;;;;3.50;1.40;;;18.90;99.90;;;;;;5066864;28;20192;-59
2023/10/19 12:48:59;;;;;;;3.07;1.50;;;19.30;99.90;;;;;;5076838;28;20290;-59
2023/10/19 12:51:27;;;;;;;1.10;1.10;;;19.80;99.90;;;;;;5066942;28;20219;-59
2023/10/19 12:53:56;;;;;;;2.20;1.20;;;20.30;99.90;;;;;;5066230;28;20219;-59
2023/10/19 12:56:28;;;;;;;1.57;1.30;;;20.70;92.40;;;;;;5073946;28;20302;-59
2023/10/19 12:58:57;;;;;;;2.80;1.30;;;20.80;75.30;;;;;;5064756;28;20281;-59
2023/10/19 13:01:27;;;;;;;1.40;1.30;;;20.70;72.50;;;;;;5065862;28;20333;-58
2023/10/19 13:03:56;;;;;;;1.07;1.07;;;20.70;84.60;;;;;;5066100;28;20186;-58
2023/10/19 13:06:29;;;;;;;2.23;1.10;;;20.60;73.20;;;;;;5068692;28;20289;-58
2023/10/19 13:08:57;;;;;;;1.77;1.37;;;20.50;85.30;;;;;;5060995;28;20541;-58
2023/10/19 13:11:27;;;;;;;2.07;1.40;;;20.40;84.40;;;;;;5062135;28;20324;-58